Time;durP1;ratioP1;P1;durP2;ratioP2;P2;SDS_P1;SDS_P2;PMS_P1;PMS_P2;Temp;Humidity;BMP_temperature;BMP_pressure;BME280_temperature;BME280_humidity;BME280_pressure;Samples;Min_cycle;Max_cycle;Signal;HPM_P1;HPM_P2
2023/06/05 00:01:17;;;;;;;2.00;1.90;;;24.90;40.30;25.80;101233.00;;;;5008009;28;20218;-57
2023/06/05 00:03:43;;;;;;;2.28;2.08;;;24.80;40.20;25.80;101234.00;;;;5008149;28;20199;-57
2023/06/05 00:06:10;;;;;;;2.30;2.10;;;24.90;40.20;25.80;101232.00;;;;5007942;28;20187;-58
2023/06/05 00:08:35;;;;;;;2.40;2.20;;;24.80;40.10;25.80;101238.00;;;;5008315;28;20191;-57
2023/06/05 00:11:01;;;;;;;2.17;2.08;;;24.80;40.00;25.70;101233.00;;;;5007975;28;20623;-57
2023/06/05 00:13:27;;;;;;;2.20;2.00;;;24.80;40.10;25.70;101234.00;;;;5008231;28;20290;-58
2023/06/05 00:15:53;;;;;;;2.10;2.00;;;24.80;40.10;25.70;101230.00;;;;5007942;28;20176;-57
2023/06/05 00:18:19;;;;;;;2.00;1.90;;;24.80;40.10;25.60;101234.00;;;;5007712;28;20561;-57
2023/06/05 00:20:45;;;;;;;2.35;2.15;;;24.80;40.20;25.70;101234.00;;;;5008023;28;20551;-57
2023/06/05 00:23:13;;;;;;;2.17;2.00;;;24.70;40.10;25.70;101236.00;;;;5006985;28;20206;-60
2023/06/05 00:25:39;;;;;;;2.00;1.90;;;24.70;40.10;25.60;101226.00;;;;5009173;28;20234;-57
2023/06/05 00:28:05;;;;;;;2.20;2.00;;;24.70;40.10;25.60;101228.00;;;;5019026;28;20175;-57
2023/06/05 00:30:30;;;;;;;2.10;2.00;;;24.70;40.10;25.60;101213.00;;;;5017200;28;20803;-57
2023/06/05 00:32:56;;;;;;;1.90;1.80;;;24.70;40.10;25.60;101231.00;;;;5012169;28;20261;-57
2023/06/05 00:35:22;;;;;;;1.98;1.88;;;24.70;40.20;25.60;101228.00;;;;5011803;28;20259;-57
2023/06/05 00:37:48;;;;;;;2.50;2.10;;;24.70;40.20;25.50;101228.00;;;;5011974;28;20191;-56
2023/06/05 00:40:14;;;;;;;2.28;2.17;;;24.70;40.10;25.50;101231.00;;;;5011970;28;20292;-56
2023/06/05 00:42:39;;;;;;;2.38;2.17;;;24.70;40.20;25.50;101236.00;;;;5015004;28;20172;-58
2023/06/05 00:45:06;;;;;;;2.22;2.03;;;24.70;40.20;25.50;101235.00;;;;5014859;28;20184;-57
2023/06/05 00:47:32;;;;;;;2.00;1.90;;;24.70;40.30;25.50;101239.00;;;;5011658;28;20350;-57
2023/06/05 00:49:58;;;;;;;2.95;2.17;;;24.60;40.20;25.40;101240.00;;;;5011462;28;20207;-58
2023/06/05 00:52:24;;;;;;;2.25;2.05;;;24.60;40.30;25.40;101232.00;;;;5010095;28;20262;-57
2023/06/05 00:54:50;;;;;;;2.10;2.00;;;24.60;40.50;25.40;101235.00;;;;5010029;28;20642;-57
2023/06/05 00:57:16;;;;;;;2.20;2.00;;;24.60;40.50;25.40;101226.00;;;;5011106;28;20202;-58
2023/06/05 00:59:44;;;;;;;2.65;2.10;;;24.60;40.50;25.40;101224.00;;;;4993457;28;20241;-58
2023/06/05 01:02:13;;;;;;;2.25;2.05;;;24.50;41.10;25.30;101230.00;;;;5010107;28;20195;-57
2023/06/05 01:04:46;;;;;;;2.10;2.00;;;24.50;40.40;25.30;101228.00;;;;5003742;28;20188;-59
2023/06/05 01:07:14;;;;;;;2.30;2.10;;;24.50;40.40;25.30;101222.00;;;;5012661;28;20195;-57
2023/06/05 01:09:40;;;;;;;2.30;2.10;;;24.50;40.40;25.30;101234.00;;;;4977380;28;20551;-58
2023/06/05 01:12:28;;;;;;;2.95;2.00;;;24.50;40.40;25.30;101232.00;;;;5009439;28;20196;-56
2023/06/05 01:14:58;;;;;;;2.20;2.10;;;24.50;40.40;25.20;101231.00;;;;5009388;28;20279;-58
2023/06/05 01:17:25;;;;;;;2.25;2.05;;;24.50;40.40;25.20;101234.00;;;;5009650;28;20179;-57
2023/06/05 01:19:52;;;;;;;2.30;2.08;;;24.50;40.40;25.20;101224.00;;;;4977252;28;20188;-57
2023/06/05 01:22:18;;;;;;;3.75;2.30;;;24.40;40.30;25.20;101229.00;;;;5009566;28;20182;-58
2023/06/05 01:24:43;;;;;;;2.15;2.00;;;24.40;40.40;25.20;101223.00;;;;5010708;28;20277;-58
2023/06/05 01:27:24;;;;;;;2.38;2.17;;;24.40;40.40;25.20;101228.00;;;;5010848;28;20182;-55
2023/06/05 01:30:03;;;;;;;2.15;1.90;;;24.40;40.30;25.10;101215.00;;;;5009420;28;20203;-57
2023/06/05 01:33:07;;;;;;;2.10;2.00;;;24.40;40.60;25.10;101220.00;;;;5009212;28;20199;-57
2023/06/05 01:35:33;;;;;;;2.20;2.00;;;24.40;40.50;25.10;101224.00;;;;5009198;28;20346;-57
2023/06/05 01:38:02;;;;;;;2.73;2.10;;;24.40;40.40;25.10;101218.00;;;;5010002;28;20537;-57
2023/06/05 01:40:29;;;;;;;3.63;2.30;;;24.40;40.70;25.00;101227.00;;;;5008917;28;20228;-57
2023/06/05 01:42:55;;;;;;;2.25;2.05;;;24.30;40.60;25.00;101224.00;;;;5008936;28;20631;-57
2023/06/05 01:45:21;;;;;;;2.75;2.03;;;24.30;40.60;25.00;101209.00;;;;5008771;28;20175;-57
2023/06/05 01:47:48;;;;;;;2.30;2.10;;;24.40;40.70;25.00;101205.00;;;;5010195;28;20218;-58
2023/06/05 01:50:14;;;;;;;2.38;2.17;;;24.30;40.70;25.00;101206.00;;;;5010040;28;20279;-55
2023/06/05 01:52:41;;;;;;;2.40;2.20;;;24.30;40.70;25.00;101207.00;;;;5010265;28;20331;-55
2023/06/05 01:55:18;;;;;;;2.53;2.30;;;24.30;40.80;24.90;101209.00;;;;5010153;28;20196;-57
2023/06/05 01:57:44;;;;;;;2.37;2.17;;;24.30;40.80;24.90;101202.00;;;;5010120;28;20202;-57
2023/06/05 02:00:15;;;;;;;2.47;2.10;;;24.30;40.70;24.70;101201.00;;;;5010002;28;20223;-56
2023/06/05 02:02:47;;;;;;;2.37;2.17;;;24.20;40.60;24.80;101201.00;;;;5009953;28;20192;-56
2023/06/05 02:05:14;;;;;;;2.47;2.27;;;24.20;40.70;24.80;101205.00;;;;5008379;28;20570;-56
2023/06/05 02:07:41;;;;;;;3.03;2.10;;;24.20;40.70;24.80;101206.00;;;;5009661;28;20654;-56
2023/06/05 02:10:08;;;;;;;2.40;2.20;;;24.20;40.60;24.80;101202.00;;;;5009737;28;20274;-56
2023/06/05 02:12:34;;;;;;;2.37;2.17;;;24.20;40.60;24.80;101199.00;;;;5008096;28;20199;-56
2023/06/05 02:15:00;;;;;;;2.47;2.00;;;24.20;40.60;24.70;101210.00;;;;5009606;28;20208;-57
2023/06/05 02:17:26;;;;;;;2.30;2.10;;;24.20;40.70;24.70;101195.00;;;;5009577;28;20461;-56
2023/06/05 02:19:52;;;;;;;2.30;2.10;;;24.10;40.60;24.70;101195.00;;;;5009609;28;20271;-56
2023/06/05 02:22:18;;;;;;;2.17;2.07;;;24.10;40.70;24.70;101196.00;;;;5009459;28;20557;-56
2023/06/05 02:24:44;;;;;;;2.27;1.90;;;24.10;40.70;24.70;101191.00;;;;5009663;28;20175;-55
2023/06/05 02:27:10;;;;;;;2.27;2.10;;;24.10;40.70;24.60;101135.00;;;;5009571;28;20271;-56
2023/06/05 02:29:37;;;;;;;2.20;2.00;;;24.10;40.70;24.60;101181.00;;;;5015048;28;20654;-56
2023/06/05 02:32:05;;;;;;;2.27;2.17;;;24.00;40.60;24.60;101152.00;;;;5015976;28;20200;-55
2023/06/05 02:34:32;;;;;;;2.20;2.00;;;24.00;40.70;24.60;101183.00;;;;5009899;28;20176;-56
2023/06/05 02:36:59;;;;;;;2.30;2.10;;;24.00;40.80;24.60;101187.00;;;;5009683;28;20174;-57
2023/06/05 02:39:25;;;;;;;2.23;2.10;;;24.00;40.80;24.60;101182.00;;;;5009915;28;20183;-57
2023/06/05 02:41:52;;;;;;;2.77;2.30;;;24.00;40.80;24.50;101186.00;;;;5010038;28;20176;-56
2023/06/05 02:44:18;;;;;;;2.40;2.20;;;23.90;40.80;24.50;101161.00;;;;5014500;28;20179;-57
2023/06/05 02:46:44;;;;;;;2.17;2.00;;;23.90;40.90;24.50;101181.00;;;;5014150;28;20176;-57
2023/06/05 02:49:10;;;;;;;2.53;2.20;;;23.90;41.00;24.50;101181.00;;;;5008601;28;20191;-57
2023/06/05 02:51:35;;;;;;;2.07;1.97;;;23.90;41.00;24.50;101180.00;;;;5009031;28;20202;-57
2023/06/05 02:54:01;;;;;;;2.40;2.20;;;23.90;41.00;24.40;101173.00;;;;5009125;28;20203;-56
2023/06/05 02:56:27;;;;;;;2.73;2.27;;;23.80;41.00;24.40;101173.00;;;;5007798;28;20172;-57
2023/06/05 02:58:53;;;;;;;2.30;2.10;;;23.80;41.40;24.40;101185.00;;;;5008969;28;20175;-57
2023/06/05 03:01:21;;;;;;;2.63;2.13;;;23.80;41.20;24.40;101167.00;;;;5008924;28;20200;-58
2023/06/05 03:03:48;;;;;;;2.27;2.07;;;23.80;41.40;24.40;101178.00;;;;5008905;28;20631;-56
2023/06/05 03:06:17;;;;;;;1.93;1.83;;;23.80;41.30;24.40;101177.00;;;;5008890;28;20175;-57
2023/06/05 03:08:43;;;;;;;2.37;2.17;;;23.80;41.40;24.30;101171.00;;;;5009314;28;20234;-56
2023/06/05 03:11:08;;;;;;;3.10;2.20;;;23.70;41.30;24.30;101175.00;;;;5008701;28;20203;-56
2023/06/05 03:13:34;;;;;;;2.67;2.40;;;23.80;41.40;24.30;101172.00;;;;5007494;28;20176;-56
2023/06/05 03:16:03;;;;;;;2.43;2.20;;;23.70;41.30;24.30;101173.00;;;;5008503;28;20194;-55
2023/06/05 03:18:29;;;;;;;2.43;2.20;;;23.70;41.30;24.20;101165.00;;;;5008618;28;20179;-57
2023/06/05 03:20:55;;;;;;;2.40;2.20;;;23.70;41.40;24.20;101172.00;;;;5008700;28;20187;-55
2023/06/05 03:23:30;;;;;;;2.30;2.10;;;23.70;41.50;24.20;101170.00;;;;5008625;28;20655;-55
2023/06/05 03:25:56;;;;;;;4.20;2.40;;;23.60;42.10;24.20;101168.00;;;;5007679;28;20170;-56
2023/06/05 03:28:22;;;;;;;2.10;2.00;;;23.60;41.40;24.20;101179.00;;;;5009561;28;20202;-58
2023/06/05 03:30:48;;;;;;;2.30;2.10;;;23.60;41.60;24.10;101166.00;;;;5010911;28;20366;-55
2023/06/05 03:33:15;;;;;;;2.03;1.87;;;23.60;41.70;24.10;101164.00;;;;5008656;28;20207;-56
2023/06/05 03:35:42;;;;;;;2.47;2.10;;;23.50;41.60;24.10;101161.00;;;;5008662;28;20203;-56
2023/06/05 03:38:09;;;;;;;2.50;2.30;;;23.60;41.70;24.10;101165.00;;;;5008287;28;20279;-56
2023/06/05 03:40:34;;;;;;;2.33;2.13;;;23.50;41.60;24.10;101166.00;;;;5008623;28;20889;-54
2023/06/05 03:43:00;;;;;;;2.40;2.20;;;23.50;41.80;24.10;101182.00;;;;5008405;28;20223;-57
2023/06/05 03:45:27;;;;;;;2.33;2.13;;;23.50;41.80;24.10;101177.00;;;;5008105;28;20179;-56
2023/06/05 03:47:53;;;;;;;2.13;1.93;;;23.40;41.70;23.70;101173.00;;;;5009636;28;20183;-56
2023/06/05 03:50:20;;;;;;;2.40;2.20;;;23.40;41.80;24.00;101178.00;;;;5009194;28;20215;-56
2023/06/05 03:52:52;;;;;;;2.73;2.00;;;23.40;41.90;24.00;101190.00;;;;5009331;28;20334;-56
2023/06/05 03:55:21;;;;;;;2.30;2.10;;;23.40;41.80;24.00;101177.00;;;;5008167;28;20254;-56
2023/06/05 03:57:47;;;;;;;2.53;2.20;;;23.40;41.90;24.00;101187.00;;;;5009605;28;20254;-56
2023/06/05 04:00:14;;;;;;;2.40;2.20;;;23.40;41.80;24.00;101189.00;;;;5010030;28;20247;-55
2023/06/05 04:02:40;;;;;;;2.17;1.97;;;23.40;41.90;24.00;101187.00;;;;5013608;28;20180;-56
2023/06/05 04:05:11;;;;;;;2.10;2.00;;;23.40;42.00;23.90;101190.00;;;;5013309;28;20202;-56
2023/06/05 04:07:37;;;;;;;2.23;2.03;;;23.30;41.90;23.90;101192.00;;;;5013548;28;20250;-55
2023/06/05 04:10:04;;;;;;;2.37;2.17;;;23.30;42.00;23.90;101195.00;;;;5013282;28;20230;-56
2023/06/05 04:12:30;;;;;;;2.27;2.13;;;23.30;42.00;23.90;101191.00;;;;5013716;28;20196;-56
2023/06/05 04:14:55;;;;;;;2.20;2.00;;;23.30;42.00;23.90;101189.00;;;;5013403;28;20395;-55
2023/06/05 04:17:21;;;;;;;2.20;2.00;;;23.30;42.10;23.80;101192.00;;;;5013231;28;20250;-56
2023/06/05 04:19:47;;;;;;;2.20;2.00;;;23.20;42.00;23.80;101186.00;;;;5013369;28;20278;-55
2023/06/05 04:22:13;;;;;;;2.10;2.00;;;23.20;42.10;23.80;101192.00;;;;5013117;28;20171;-56
2023/06/05 04:24:39;;;;;;;2.20;2.00;;;23.20;42.10;23.80;101187.00;;;;5013079;28;20179;-56
2023/06/05 04:27:04;;;;;;;2.40;2.20;;;23.20;42.20;23.80;101184.00;;;;5013456;28;20270;-55
2023/06/05 04:29:32;;;;;;;2.23;2.03;;;23.20;42.30;23.80;101164.00;;;;5015881;28;20194;-57
2023/06/05 04:31:58;;;;;;;2.03;1.93;;;23.20;42.30;23.80;101192.00;;;;5022187;28;20188;-57
2023/06/05 04:34:24;;;;;;;2.20;2.10;;;23.20;42.30;23.70;101186.00;;;;5013070;28;20543;-56
2023/06/05 04:36:51;;;;;;;2.30;2.10;;;23.10;42.30;23.70;101189.00;;;;5013082;28;20198;-57
2023/06/05 04:39:18;;;;;;;2.40;2.20;;;23.10;42.40;23.70;101193.00;;;;5013278;28;20523;-58
2023/06/05 04:41:47;;;;;;;2.10;2.00;;;23.10;42.40;23.70;101186.00;;;;5013051;28;20207;-57
2023/06/05 04:44:16;;;;;;;2.33;2.13;;;23.10;42.50;23.70;101183.00;;;;5015955;28;20611;-57
2023/06/05 04:46:45;;;;;;;3.87;2.40;;;23.10;42.50;23.70;101198.00;;;;5019816;28;20226;-56
2023/06/05 04:49:12;;;;;;;2.77;2.00;;;23.00;42.70;23.70;101189.00;;;;5012857;28;20283;-56
2023/06/05 04:51:37;;;;;;;2.60;2.40;;;23.00;42.70;23.70;101198.00;;;;5012590;28;20207;-56
2023/06/05 04:54:05;;;;;;;3.90;2.13;;;23.00;42.70;23.60;101198.00;;;;5012498;28;20176;-56
2023/06/05 04:56:32;;;;;;;2.07;1.97;;;23.00;42.70;23.60;101199.00;;;;5012400;28;20172;-55
2023/06/05 04:58:59;;;;;;;4.07;2.20;;;23.00;42.70;23.60;101188.00;;;;5012437;28;20245;-56
2023/06/05 05:01:25;;;;;;;2.80;2.00;;;23.00;42.70;23.60;101194.00;;;;5011047;28;20195;-55
2023/06/05 05:03:51;;;;;;;2.87;2.33;;;23.00;42.80;23.60;101189.00;;;;5012747;28;20172;-55
2023/06/05 05:06:17;;;;;;;2.73;2.20;;;23.00;42.70;23.60;101195.00;;;;5012681;28;20190;-56
2023/06/05 05:08:48;;;;;;;2.97;2.10;;;23.00;42.70;23.60;101196.00;;;;5013130;28;20184;-57
2023/06/05 05:11:14;;;;;;;3.50;2.37;;;23.00;42.70;23.60;101191.00;;;;5012102;28;20575;-57
2023/06/05 05:13:41;;;;;;;2.70;2.40;;;23.00;42.70;23.60;101190.00;;;;5011432;28;20168;-57
2023/06/05 05:16:10;;;;;;;2.40;2.20;;;23.00;42.60;23.60;101205.00;;;;5012377;28;20677;-56
2023/06/05 05:18:38;;;;;;;2.27;2.07;;;22.90;42.60;23.60;101199.00;;;;5012648;28;20172;-56
2023/06/05 05:21:05;;;;;;;2.40;2.20;;;22.90;42.70;23.60;101205.00;;;;5011292;28;20214;-55
2023/06/05 05:23:31;;;;;;;2.33;2.13;;;22.90;42.70;23.60;101202.00;;;;5012158;28;20670;-56
2023/06/05 05:25:57;;;;;;;2.50;2.30;;;22.90;42.60;23.60;101193.00;;;;5012075;28;20258;-57
2023/06/05 05:28:23;;;;;;;2.50;2.13;;;22.90;42.70;23.50;101207.00;;;;5011562;28;20831;-55
2023/06/05 05:30:49;;;;;;;2.20;2.00;;;22.90;42.70;23.60;101203.00;;;;5010586;28;20203;-57
2023/06/05 05:33:15;;;;;;;2.30;2.10;;;22.90;42.60;23.50;101198.00;;;;5011879;28;20279;-58
2023/06/05 05:35:41;;;;;;;4.83;2.30;;;22.90;42.70;23.60;101201.00;;;;4994387;28;20638;-57
2023/06/05 05:38:07;;;;;;;3.13;2.00;;;23.00;42.80;23.60;101204.00;;;;5010622;28;20179;-57
2023/06/05 05:40:32;;;;;;;2.13;1.93;;;23.00;42.80;23.60;101199.00;;;;5011660;28;20191;-55
2023/06/05 05:42:58;;;;;;;2.20;2.00;;;23.00;43.00;23.60;101195.00;;;;5010547;28;20179;-58
2023/06/05 05:45:24;;;;;;;2.70;2.40;;;23.00;43.00;23.60;101205.00;;;;5010269;28;20666;-56
2023/06/05 05:47:49;;;;;;;2.40;2.20;;;23.00;43.20;23.60;101205.00;;;;5011496;28;20559;-56
2023/06/05 05:50:15;;;;;;;2.40;2.10;;;23.00;43.20;23.60;101202.00;;;;5011540;28;20203;-55
2023/06/05 05:52:43;;;;;;;3.20;2.20;;;23.00;43.20;23.60;101201.00;;;;5011731;28;20204;-57
2023/06/05 05:55:09;;;;;;;2.90;2.30;;;23.00;43.40;23.60;101215.00;;;;5017057;28;20180;-55
2023/06/05 05:57:34;;;;;;;2.20;2.00;;;23.00;43.50;23.60;101209.00;;;;4999922;28;20444;-55
2023/06/05 06:00:00;;;;;;;3.27;2.20;;;23.00;43.50;23.60;101218.00;;;;5011316;28;20274;-56
2023/06/05 06:02:26;;;;;;;2.17;1.97;;;23.00;43.50;23.60;101213.00;;;;5010215;28;20717;-58
2023/06/05 06:04:52;;;;;;;3.03;2.30;;;23.00;43.50;23.50;101218.00;;;;5009862;28;20176;-57
2023/06/05 06:07:17;;;;;;;2.33;2.10;;;23.00;43.50;23.50;101219.00;;;;5009997;28;20278;-57
2023/06/05 06:09:44;;;;;;;3.00;2.10;;;23.00;43.60;23.50;101209.00;;;;5011177;28;20230;-57
2023/06/05 06:12:10;;;;;;;3.10;2.23;;;23.00;43.50;23.50;101218.00;;;;5011335;28;20678;-57
2023/06/05 06:14:36;;;;;;;2.43;2.00;;;23.00;43.50;23.50;101213.00;;;;5011055;28;20231;-57
2023/06/05 06:17:04;;;;;;;2.30;2.10;;;23.00;43.60;23.50;101207.00;;;;5011168;28;20171;-57
2023/06/05 06:19:31;;;;;;;2.03;1.93;;;23.00;43.60;23.50;101210.00;;;;5010079;28;20171;-58
2023/06/05 06:21:56;;;;;;;2.27;2.07;;;23.00;43.60;23.50;101210.00;;;;5011524;28;20176;-57
2023/06/05 06:24:23;;;;;;;2.40;2.10;;;23.00;43.60;23.50;101207.00;;;;5010759;28;20183;-57
2023/06/05 06:26:49;;;;;;;2.60;2.10;;;23.00;43.60;23.50;101210.00;;;;5011160;28;20203;-57
2023/06/05 06:29:18;;;;;;;2.23;2.03;;;22.90;43.50;23.50;101210.00;;;;5011026;28;20828;-57
2023/06/05 06:31:44;;;;;;;2.30;2.00;;;22.90;43.50;23.50;101211.00;;;;5020306;28;20199;-57
2023/06/05 06:34:10;;;;;;;2.40;2.20;;;23.00;43.60;23.50;101219.00;;;;5013481;28;20258;-57
2023/06/05 06:36:40;;;;;;;2.20;2.00;;;22.90;43.50;23.50;101222.00;;;;5011085;28;20182;-57
2023/06/05 06:39:07;;;;;;;2.20;2.00;;;22.90;43.60;23.50;101211.00;;;;5010868;28;20614;-56
2023/06/05 06:41:34;;;;;;;2.60;2.13;;;22.90;43.60;23.50;101162.00;;;;5010518;28;20198;-56
2023/06/05 06:44:01;;;;;;;2.20;2.00;;;22.90;43.60;23.50;101222.00;;;;5010773;28;20337;-57
2023/06/05 06:46:26;;;;;;;2.03;1.90;;;23.00;43.60;23.50;101219.00;;;;5013062;28;20207;-58
2023/06/05 06:48:52;;;;;;;2.20;2.00;;;23.00;43.80;23.50;101226.00;;;;5016956;28;20186;-56
2023/06/05 06:51:18;;;;;;;2.10;1.90;;;22.90;43.70;23.50;101227.00;;;;5011102;28;20251;-56
2023/06/05 06:53:44;;;;;;;2.13;2.00;;;22.90;43.70;23.50;101225.00;;;;5010456;28;20245;-56
2023/06/05 06:56:10;;;;;;;2.20;2.00;;;22.90;43.70;23.50;101233.00;;;;5010243;28;20588;-56
2023/06/05 06:58:36;;;;;;;3.90;1.83;;;22.90;43.70;23.50;101223.00;;;;5008984;28;20171;-57
2023/06/05 07:01:03;;;;;;;2.80;2.17;;;22.90;43.80;23.50;101230.00;;;;5009491;28;20198;-57
2023/06/05 07:03:29;;;;;;;2.80;1.93;;;22.90;43.90;23.50;101229.00;;;;5010354;28;20180;-58
2023/06/05 07:05:54;;;;;;;2.30;2.10;;;22.90;44.00;23.50;101229.00;;;;5010028;28;20175;-57
2023/06/05 07:08:20;;;;;;;2.87;2.30;;;22.90;44.00;23.50;101226.00;;;;5009995;28;20222;-57
2023/06/05 07:10:46;;;;;;;2.30;2.10;;;22.90;44.10;23.50;101229.00;;;;5010031;28;20195;-57
2023/06/05 07:13:12;;;;;;;2.40;2.20;;;22.90;44.10;23.50;101217.00;;;;5010165;28;20218;-57
2023/06/05 07:15:38;;;;;;;2.00;1.90;;;22.90;44.20;23.50;101216.00;;;;5009745;28;20182;-57
2023/06/05 07:18:03;;;;;;;2.57;2.00;;;22.90;44.20;23.50;101215.00;;;;5009980;28;20674;-56
2023/06/05 07:20:29;;;;;;;2.30;2.10;;;22.80;44.20;23.50;101220.00;;;;5009782;28;20225;-56
2023/06/05 07:22:55;;;;;;;2.20;2.00;;;22.80;44.30;23.50;101219.00;;;;5010111;28;20180;-56
2023/06/05 07:25:24;;;;;;;2.20;2.00;;;22.80;44.30;23.50;101225.00;;;;5008784;28;20227;-57
2023/06/05 07:27:50;;;;;;;2.77;2.20;;;22.80;44.40;23.40;101216.00;;;;5009954;28;20183;-57
2023/06/05 07:30:16;;;;;;;2.10;2.00;;;22.90;44.50;23.50;101214.00;;;;5009563;28;20196;-56
2023/06/05 07:32:42;;;;;;;2.43;2.03;;;22.80;44.50;23.50;101219.00;;;;5009691;28;20705;-57
2023/06/05 07:35:09;;;;;;;2.00;1.90;;;22.80;44.50;23.50;101217.00;;;;5009392;28;20713;-57
2023/06/05 07:37:35;;;;;;;2.20;1.90;;;22.80;44.60;23.50;101213.00;;;;5009708;28;20720;-56
2023/06/05 07:40:02;;;;;;;3.37;2.10;;;22.80;44.60;23.50;101212.00;;;;5009589;28;20195;-56
2023/06/05 07:42:28;;;;;;;1.90;1.80;;;22.80;44.80;23.50;101209.00;;;;5009845;28;20179;-56
2023/06/05 07:44:54;;;;;;;1.97;1.87;;;22.80;44.80;23.50;101205.00;;;;5009867;28;20332;-56
2023/06/05 07:47:20;;;;;;;1.90;1.80;;;22.80;44.80;23.50;101208.00;;;;5009634;28;20182;-56
2023/06/05 07:50:03;;;;;;;2.37;2.10;;;22.80;45.00;23.50;101203.00;;;;5009331;28;20203;-57
2023/06/05 07:52:30;;;;;;;2.10;2.00;;;22.80;45.00;23.50;101212.00;;;;5009599;28;20207;-56
2023/06/05 07:54:56;;;;;;;2.30;2.10;;;22.80;45.10;23.50;101201.00;;;;5009541;28;20277;-56
2023/06/05 07:57:23;;;;;;;2.03;1.93;;;22.80;45.10;23.50;101207.00;;;;5009366;28;20183;-57
2023/06/05 07:59:50;;;;;;;2.10;2.00;;;22.80;45.10;23.50;101205.00;;;;5008007;28;20211;-56
2023/06/05 08:02:19;;;;;;;2.30;2.10;;;22.80;45.20;23.50;101198.00;;;;5009625;28;20597;-56
2023/06/05 08:04:45;;;;;;;2.20;2.00;;;22.80;45.40;23.50;101216.00;;;;5007995;28;20171;-56
2023/06/05 08:07:11;;;;;;;2.10;2.00;;;22.80;45.40;23.50;101209.00;;;;5009523;28;20176;-57
2023/06/05 08:09:37;;;;;;;2.67;2.00;;;22.80;45.40;23.50;101199.00;;;;5009625;28;20171;-56
2023/06/05 08:12:06;;;;;;;2.50;2.10;;;22.80;45.50;23.50;101157.00;;;;5010054;28;20223;-57
2023/06/05 08:14:33;;;;;;;2.00;1.90;;;22.80;45.50;23.50;101197.00;;;;5009233;28;20206;-56
2023/06/05 08:16:59;;;;;;;2.00;1.90;;;22.80;45.60;23.50;101192.00;;;;5010330;28;20580;-56
2023/06/05 08:19:24;;;;;;;2.37;2.17;;;22.80;45.70;23.50;101181.00;;;;5008350;28;20206;-57
2023/06/05 08:21:51;;;;;;;2.07;1.90;;;22.80;45.80;23.50;101183.00;;;;5009714;28;20235;-56
2023/06/05 08:24:17;;;;;;;2.00;1.90;;;22.80;45.80;23.50;101180.00;;;;5008926;28;20270;-56
2023/06/05 08:26:43;;;;;;;1.90;1.80;;;22.80;45.80;23.50;101179.00;;;;5009162;28;20258;-56
2023/06/05 08:29:09;;;;;;;2.27;2.00;;;22.80;45.90;23.50;101174.00;;;;5009197;28;20195;-56
2023/06/05 08:31:36;;;;;;;2.10;1.90;;;22.80;45.80;23.50;101179.00;;;;5009203;28;20204;-55
2023/06/05 08:34:02;;;;;;;2.23;2.00;;;22.80;46.00;23.50;101178.00;;;;5017834;28;20701;-56
2023/06/05 08:36:28;;;;;;;2.20;2.00;;;22.80;45.90;23.50;101177.00;;;;5010820;28;20184;-57
2023/06/05 08:38:54;;;;;;;1.93;1.83;;;22.80;46.00;23.50;101166.00;;;;5009577;28;20175;-56
2023/06/05 08:41:20;;;;;;;2.00;1.90;;;22.80;46.10;23.50;101163.00;;;;5009480;28;20183;-55
2023/06/05 08:43:46;;;;;;;2.40;2.20;;;22.80;46.20;23.50;101157.00;;;;5009304;28;20172;-55
2023/06/05 08:46:13;;;;;;;2.00;1.90;;;22.80;46.20;23.50;101166.00;;;;4975413;28;20194;-56
2023/06/05 08:48:46;;;;;;;2.40;2.20;;;22.80;46.30;23.50;101161.00;;;;5017038;28;20194;-56
2023/06/05 08:51:15;;;;;;;2.33;2.13;;;22.80;46.30;23.50;101164.00;;;;5014354;28;20202;-57
2023/06/05 08:53:45;;;;;;;2.03;1.93;;;22.80;46.40;23.50;101157.00;;;;5012533;28;20180;-56
2023/06/05 08:56:11;;;;;;;2.00;1.90;;;22.80;46.40;23.50;101158.00;;;;5012384;28;20175;-57
2023/06/05 08:58:37;;;;;;;1.93;1.83;;;22.80;46.50;23.50;101155.00;;;;4994761;28;20179;-57
2023/06/05 09:01:03;;;;;;;2.20;2.00;;;22.80;46.50;23.50;101155.00;;;;5011168;28;20199;-57
2023/06/05 09:03:29;;;;;;;2.40;2.20;;;22.80;46.60;23.50;101158.00;;;;5012232;28;20716;-56
2023/06/05 09:05:55;;;;;;;2.30;2.10;;;22.80;46.60;23.50;101163.00;;;;5012140;28;20548;-57
2023/06/05 09:08:32;;;;;;;2.20;2.00;;;22.80;46.60;23.50;101150.00;;;;5012281;28;20203;-58
2023/06/05 09:11:28;;;;;;;2.27;2.07;;;22.80;47.30;23.60;101136.00;;;;5010993;28;20566;-58
2023/06/05 09:13:58;;;;;;;2.00;1.90;;;22.80;46.60;23.50;101145.00;;;;5011190;28;20422;-58
2023/06/05 09:16:37;;;;;;;2.37;2.10;;;22.80;46.70;23.60;101142.00;;;;5012223;28;20171;-57
2023/06/05 09:19:03;;;;;;;2.30;2.10;;;22.80;46.80;23.60;101145.00;;;;5012459;28;20179;-57
2023/06/05 09:21:30;;;;;;;1.90;1.80;;;22.80;46.90;23.60;101122.00;;;;4994630;28;20230;-57
2023/06/05 09:24:23;;;;;;;2.33;2.13;;;22.80;46.90;23.60;101140.00;;;;5010699;28;20210;-57
2023/06/05 09:27:09;;;;;;;2.00;1.87;;;22.90;47.00;23.60;101146.00;;;;5007550;28;20192;-57
2023/06/05 09:29:39;;;;;;;2.00;1.90;;;22.90;47.00;23.60;101137.00;;;;5011716;28;20183;-57
2023/06/05 09:32:09;;;;;;;1.90;1.80;;;22.90;47.00;23.60;101140.00;;;;5010638;28;20199;-56
2023/06/05 09:34:39;;;;;;;2.63;2.10;;;22.90;46.90;23.60;101144.00;;;;5010388;28;20566;-56
2023/06/05 09:37:09;;;;;;;2.10;2.00;;;22.90;47.00;23.60;101139.00;;;;5010592;28;20168;-58
2023/06/05 09:39:45;;;;;;;2.13;2.03;;;22.90;47.10;23.60;101140.00;;;;5011571;28;20643;-57
2023/06/05 09:42:11;;;;;;;2.23;2.10;;;22.90;47.10;23.60;101138.00;;;;4978507;28;20206;-58
2023/06/05 09:44:37;;;;;;;2.10;2.00;;;22.90;47.10;23.60;101133.00;;;;5011456;28;20600;-57
2023/06/05 09:47:10;;;;;;;2.40;2.20;;;22.90;47.10;23.60;101132.00;;;;5011510;28;20229;-56
2023/06/05 09:49:41;;;;;;;2.10;2.00;;;22.90;47.10;23.60;101128.00;;;;5011703;28;20196;-57
2023/06/05 09:52:11;;;;;;;2.40;2.20;;;22.90;47.00;23.60;101130.00;;;;5011558;28;20261;-56
2023/06/05 09:54:41;;;;;;;2.20;2.10;;;22.90;47.10;23.70;101131.00;;;;5011554;28;20250;-56
2023/06/05 09:57:11;;;;;;;2.30;2.10;;;22.90;47.20;23.70;101132.00;;;;5011788;28;20302;-56
2023/06/05 09:59:50;;;;;;;2.20;2.00;;;22.90;47.20;23.70;101135.00;;;;5011286;28;20187;-56
2023/06/05 10:02:16;;;;;;;2.23;2.03;;;23.00;47.10;23.70;101115.00;;;;5010356;28;20175;-57
2023/06/05 10:04:49;;;;;;;2.60;2.40;;;22.90;47.10;23.70;101129.00;;;;5010134;28;20174;-57
2023/06/05 10:07:15;;;;;;;2.47;2.27;;;23.00;47.00;23.70;101111.00;;;;5011301;28;20175;-58
2023/06/05 10:09:41;;;;;;;2.30;2.10;;;23.00;47.30;23.70;101131.00;;;;5009958;28;20665;-56
2023/06/05 10:12:08;;;;;;;2.50;2.30;;;23.00;47.30;23.50;101114.00;;;;5009773;28;20250;-56
2023/06/05 10:14:38;;;;;;;2.40;2.20;;;23.00;47.30;23.70;101114.00;;;;5010865;28;20187;-56
2023/06/05 10:17:04;;;;;;;2.50;2.30;;;23.00;47.30;23.70;101105.00;;;;5010513;28;20338;-57
2023/06/05 10:19:30;;;;;;;2.20;2.00;;;23.00;47.20;23.80;101110.00;;;;5010658;28;20677;-56
2023/06/05 10:21:55;;;;;;;2.60;2.40;;;23.00;47.20;23.80;101120.00;;;;5010145;28;20256;-56
2023/06/05 10:24:51;;;;;;;3.70;2.33;;;23.00;47.40;23.80;101112.00;;;;5010904;28;20188;-56
2023/06/05 10:27:56;;;;;;;2.40;2.20;;;23.10;47.50;23.80;101103.00;;;;4992936;28;20191;-57
2023/06/05 10:31:04;;;;;;;4.10;2.37;;;23.00;47.60;23.90;101116.00;;;;4995455;28;20218;-58
2023/06/05 10:34:02;;;;;;;2.00;1.90;;;23.10;47.60;23.90;101076.00;;;;5009624;28;20681;-57
2023/06/05 10:36:47;;;;;;;2.83;2.20;;;23.10;47.50;23.90;101107.00;;;;5012900;28;20172;-57
2023/06/05 10:39:14;;;;;;;2.50;2.30;;;23.10;47.50;23.90;101107.00;;;;5018728;28;20186;-58
2023/06/05 10:41:39;;;;;;;2.60;2.40;;;23.10;47.60;23.90;101112.00;;;;5009994;28;20207;-56
2023/06/05 10:44:05;;;;;;;3.60;2.30;;;23.20;47.60;23.90;101084.00;;;;5011121;28;20175;-57
2023/06/05 10:46:37;;;;;;;2.47;2.27;;;23.20;47.80;24.00;101113.00;;;;5009803;28;20184;-57
2023/06/05 10:49:08;;;;;;;2.40;2.20;;;23.20;47.90;24.00;101117.00;;;;5010653;28;20179;-57
2023/06/05 10:51:44;;;;;;;2.50;2.30;;;23.20;48.00;24.00;101119.00;;;;5013047;28;20463;-57